createdAt,value
2018-04-30T00:00:20.846Z,12.40
2018-04-30T00:02:49.087Z,12.30
2018-04-30T00:05:16.590Z,12.30
2018-04-30T00:07:44.065Z,12.40
2018-04-30T00:10:11.555Z,12.40
2018-04-30T00:12:39.031Z,12.40
2018-04-30T00:15:06.502Z,12.50
2018-04-30T00:17:34.006Z,12.50
2018-04-30T00:20:01.491Z,12.50
2018-04-30T00:22:28.986Z,12.40
2018-04-30T00:24:56.794Z,12.30
2018-04-30T00:27:24.267Z,12.20
2018-04-30T00:29:51.867Z,12.20
2018-04-30T00:32:19.445Z,12.10
2018-04-30T00:34:46.919Z,11.90
2018-04-30T00:37:14.390Z,11.90
2018-04-30T00:39:41.895Z,11.90
2018-04-30T00:42:09.485Z,11.80
2018-04-30T00:44:36.961Z,11.70
2018-04-30T00:47:04.542Z,11.70
2018-04-30T00:49:32.011Z,11.60
2018-04-30T00:51:59.499Z,11.70
2018-04-30T00:57:29.410Z,11.90
2018-04-30T00:59:56.882Z,11.90
2018-04-30T01:02:24.356Z,11.70
2018-04-30T01:04:51.835Z,11.50
2018-04-30T01:07:19.308Z,11.40
2018-04-30T01:09:46.789Z,11.20
2018-04-30T01:12:18.271Z,11.30
2018-04-30T01:14:45.803Z,11.10
2018-04-30T01:17:13.379Z,11.10
2018-04-30T01:19:40.863Z,11.00
2018-04-30T01:22:08.357Z,10.90
2018-04-30T01:24:35.843Z,10.80
2018-04-30T01:27:03.322Z,10.90
2018-04-30T01:29:30.814Z,11.00
2018-04-30T01:31:58.307Z,11.10
2018-04-30T01:34:25.821Z,11.20
2018-04-30T01:36:53.362Z,11.20
2018-04-30T01:39:20.847Z,11.20
2018-04-30T01:41:48.333Z,11.10
2018-04-30T01:44:15.807Z,11.10
2018-04-30T01:46:43.303Z,11.10
2018-04-30T01:49:10.771Z,11.10
2018-04-30T01:51:38.242Z,11.00
2018-04-30T01:54:05.716Z,11.10
2018-04-30T01:56:33.248Z,11.10
2018-04-30T01:59:00.724Z,11.20
2018-04-30T02:01:28.206Z,11.40
2018-04-30T02:03:55.674Z,11.50
2018-04-30T02:06:23.143Z,11.70
2018-04-30T02:08:50.617Z,12.20
2018-04-30T02:11:18.082Z,12.50
2018-04-30T02:13:46.335Z,13.00
2018-04-30T02:16:13.823Z,13.00
2018-04-30T02:18:41.411Z,13.10
2018-04-30T02:21:08.898Z,13.10
2018-04-30T02:23:36.479Z,13.30
2018-04-30T02:26:03.958Z,13.40
2018-04-30T02:28:31.422Z,13.40
2018-04-30T02:30:58.889Z,13.60
2018-04-30T02:33:27.199Z,13.70
2018-04-30T02:35:54.739Z,13.70
2018-04-30T02:38:22.315Z,13.80
2018-04-30T02:40:49.910Z,14.00
2018-04-30T02:43:17.407Z,14.00
2018-04-30T02:45:44.875Z,14.10
2018-04-30T02:48:12.350Z,14.20
2018-04-30T02:50:39.824Z,14.30
2018-04-30T02:53:07.305Z,14.50
2018-04-30T02:55:34.815Z,14.40
2018-04-30T02:58:02.306Z,14.50
2018-04-30T03:00:29.773Z,14.40
2018-04-30T03:02:57.241Z,14.40
2018-04-30T03:05:24.743Z,14.30
2018-04-30T03:07:52.243Z,14.20
2018-04-30T03:10:19.712Z,14.20
2018-04-30T03:12:47.194Z,14.00
2018-04-30T03:15:14.666Z,14.00
2018-04-30T03:17:42.159Z,13.90
2018-04-30T03:20:09.627Z,13.90
2018-04-30T03:22:37.122Z,13.80
2018-04-30T03:25:04.608Z,13.90
2018-04-30T03:27:32.075Z,13.90
2018-04-30T03:29:59.540Z,13.90
2018-04-30T03:32:27.772Z,13.80
2018-04-30T03:34:55.247Z,13.80
2018-04-30T03:37:22.831Z,13.80
2018-04-30T03:39:50.301Z,13.90
2018-04-30T03:42:18.538Z,13.80
2018-04-30T03:44:46.006Z,13.80
2018-04-30T03:47:14.236Z,13.90
2018-04-30T03:49:41.758Z,13.80
2018-04-30T03:52:09.211Z,13.80
2018-04-30T03:54:36.674Z,13.90
2018-04-30T03:57:04.930Z,13.80
2018-04-30T03:59:32.401Z,13.90
2018-04-30T04:02:11.767Z,13.80
2018-04-30T04:04:51.107Z,13.70
2018-04-30T04:07:18.647Z,13.70
2018-04-30T04:09:46.111Z,13.70
2018-04-30T04:12:13.881Z,13.70
2018-04-30T04:14:41.399Z,13.70
2018-04-30T04:17:08.912Z,13.70
2018-04-30T04:19:36.355Z,13.80
2018-04-30T04:22:03.859Z,13.70
2018-04-30T04:24:31.330Z,13.70
2018-04-30T04:26:58.806Z,13.80
2018-04-30T04:29:26.278Z,13.80
2018-04-30T04:31:54.536Z,13.80
2018-04-30T04:34:22.011Z,13.80
2018-04-30T04:36:49.499Z,13.80
2018-04-30T04:39:16.970Z,13.80
2018-04-30T04:41:44.504Z,13.70
2018-04-30T04:44:12.735Z,13.60
2018-04-30T04:46:40.990Z,13.50
2018-04-30T04:49:08.478Z,13.50
2018-04-30T04:51:35.942Z,13.50
2018-04-30T04:54:03.500Z,13.50
2018-04-30T04:56:30.967Z,13.50
2018-04-30T04:58:59.201Z,13.60
2018-04-30T05:01:27.521Z,13.50
2018-04-30T05:03:55.770Z,13.60
2018-04-30T05:06:23.341Z,13.50
2018-04-30T05:08:50.839Z,13.60
2018-04-30T05:11:18.370Z,13.60
2018-04-30T05:13:45.845Z,13.70
2018-04-30T05:16:13.372Z,13.60
2018-04-30T05:18:40.883Z,13.60
2018-04-30T05:21:08.386Z,13.60
2018-04-30T05:23:35.865Z,13.60
2018-04-30T05:26:03.336Z,13.50
2018-04-30T05:28:30.920Z,13.50
2018-04-30T05:30:58.384Z,13.60
2018-04-30T05:33:27.361Z,13.60
2018-04-30T05:35:54.885Z,13.50
2018-04-30T05:38:22.350Z,13.60
2018-04-30T05:40:50.614Z,13.60
2018-04-30T05:43:18.119Z,13.60
2018-04-30T05:45:45.620Z,13.60
2018-04-30T05:48:13.099Z,13.60
2018-04-30T05:50:40.572Z,13.60
2018-04-30T05:53:08.046Z,13.60
2018-04-30T05:55:35.562Z,13.60
2018-04-30T05:58:03.030Z,13.60
2018-04-30T06:00:30.558Z,13.60
2018-04-30T06:02:58.031Z,13.60
2018-04-30T06:05:25.707Z,13.60
2018-04-30T06:07:53.218Z,13.60
2018-04-30T06:10:20.698Z,13.60
2018-04-30T06:12:48.212Z,13.60
2018-04-30T06:15:15.739Z,13.50
2018-04-30T06:17:43.294Z,13.40
2018-04-30T06:20:10.792Z,13.50
2018-04-30T06:22:38.369Z,13.40
2018-04-30T06:25:05.854Z,13.40
2018-04-30T06:27:33.327Z,13.40
2018-04-30T06:30:00.791Z,13.40
2018-04-30T06:32:28.413Z,13.40
2018-04-30T06:34:56.579Z,13.30
2018-04-30T06:37:24.102Z,13.30
2018-04-30T06:39:51.573Z,13.30
2018-04-30T06:42:19.076Z,13.20
2018-04-30T06:44:46.659Z,13.20
2018-04-30T06:47:14.242Z,13.20
2018-04-30T06:49:41.707Z,13.10
2018-04-30T06:52:09.935Z,13.00
2018-04-30T06:54:37.415Z,13.00
2018-04-30T06:57:04.894Z,13.00
2018-04-30T06:59:32.370Z,13.00
2018-04-30T07:01:59.875Z,12.90
2018-04-30T07:04:27.376Z,12.90
2018-04-30T07:06:54.838Z,12.90
2018-04-30T07:09:22.533Z,12.90
2018-04-30T07:11:49.835Z,12.80
2018-04-30T07:14:17.310Z,12.80
2018-04-30T07:16:44.774Z,12.80
2018-04-30T07:19:12.239Z,12.70
2018-04-30T07:21:40.502Z,12.70
2018-04-30T07:24:07.975Z,12.70
2018-04-30T07:26:35.464Z,12.60
2018-04-30T07:29:03.054Z,12.60
2018-04-30T07:31:30.523Z,12.50
2018-04-30T07:33:58.041Z,12.50
2018-04-30T07:36:25.715Z,12.40
2018-04-30T07:38:53.186Z,12.30
2018-04-30T07:41:20.651Z,12.30
2018-04-30T07:43:48.881Z,12.10
2018-04-30T07:46:16.457Z,12.10
2018-04-30T07:48:43.923Z,12.00
2018-04-30T07:51:12.163Z,12.00
2018-04-30T07:53:39.635Z,12.00
2018-04-30T07:56:07.871Z,11.80
2018-04-30T07:58:35.376Z,11.70
2018-04-30T08:01:02.861Z,11.80
2018-04-30T08:03:30.331Z,11.80
2018-04-30T08:05:57.802Z,11.70
2018-04-30T08:08:25.319Z,11.80
2018-04-30T08:10:52.795Z,11.90
2018-04-30T08:13:20.373Z,12.10
2018-04-30T08:15:47.852Z,12.40
2018-04-30T08:18:15.326Z,12.80
2018-04-30T08:20:42.835Z,13.00
2018-04-30T08:23:10.309Z,13.10
2018-04-30T08:25:37.809Z,13.30
2018-04-30T08:28:05.379Z,13.50
2018-04-30T08:30:32.907Z,13.60
2018-04-30T08:33:00.363Z,13.80
2018-04-30T08:35:27.841Z,13.60
2018-04-30T08:37:55.351Z,13.70
2018-04-30T08:40:23.620Z,14.30
2018-04-30T08:42:51.203Z,14.30
2018-04-30T08:45:18.671Z,14.90
2018-04-30T08:47:46.151Z,15.30
2018-04-30T08:50:13.638Z,15.30
2018-04-30T08:52:41.891Z,15.00
2018-04-30T08:55:09.364Z,14.90
2018-04-30T08:57:36.848Z,14.70
2018-04-30T09:00:04.325Z,14.20
2018-04-30T09:02:31.839Z,14.20
2018-04-30T09:04:59.416Z,14.40
2018-04-30T09:07:26.902Z,14.30
2018-04-30T09:09:54.478Z,14.80
2018-04-30T09:12:21.998Z,15.30
2018-04-30T09:14:50.279Z,16.40
2018-04-30T09:17:17.842Z,16.40
2018-04-30T09:19:45.345Z,18.80
2018-04-30T09:22:12.814Z,19.30
2018-04-30T09:24:40.318Z,19.20
2018-04-30T09:27:07.783Z,18.10
2018-04-30T09:29:35.261Z,17.40
2018-04-30T09:32:02.778Z,17.60
2018-04-30T09:34:30.267Z,17.40
2018-04-30T09:36:57.735Z,17.90
2018-04-30T09:39:25.204Z,20.00
2018-04-30T09:41:52.711Z,22.80
2018-04-30T09:44:20.182Z,24.60
2018-04-30T09:46:47.679Z,23.50
2018-04-30T09:49:15.178Z,22.50
2018-04-30T09:51:42.651Z,22.80
2018-04-30T09:54:10.131Z,24.40
2018-04-30T09:56:37.615Z,25.00
2018-04-30T09:59:05.095Z,26.20
2018-04-30T10:01:32.592Z,26.90
2018-04-30T10:04:00.070Z,27.00
2018-04-30T10:06:27.566Z,26.50
2018-04-30T10:08:55.036Z,24.70
2018-04-30T10:11:22.510Z,23.40
2018-04-30T10:13:50.293Z,22.30
2018-04-30T10:16:18.563Z,19.80
2018-04-30T10:18:46.053Z,19.80
2018-04-30T10:21:13.520Z,19.00
2018-04-30T10:23:41.120Z,19.30
2018-04-30T10:26:08.500Z,21.20
2018-04-30T10:28:36.037Z,23.10
2018-04-30T10:31:03.471Z,24.40
2018-04-30T10:33:30.938Z,25.50
2018-04-30T10:35:58.411Z,27.00
2018-04-30T10:38:25.943Z,27.30
2018-04-30T10:40:53.417Z,27.40
2018-04-30T10:43:20.902Z,24.60
2018-04-30T10:45:48.460Z,23.10
2018-04-30T10:48:15.911Z,23.80
2018-04-30T10:50:43.405Z,24.20
2018-04-30T10:53:10.885Z,24.60
2018-04-30T10:55:38.484Z,23.90
2018-04-30T10:58:06.065Z,24.30
2018-04-30T11:00:33.534Z,24.60
2018-04-30T11:03:00.999Z,24.60
2018-04-30T11:05:28.507Z,23.20
2018-04-30T11:07:55.999Z,22.20
2018-04-30T11:10:23.460Z,22.70
2018-04-30T11:12:50.922Z,23.70
2018-04-30T11:15:20.846Z,24.30
2018-04-30T11:17:48.358Z,24.60
2018-04-30T11:20:15.839Z,25.70
2018-04-30T11:22:44.122Z,25.30
2018-04-30T11:25:11.580Z,25.30
2018-04-30T11:27:39.142Z,24.60
2018-04-30T11:30:06.568Z,24.90
2018-04-30T11:32:34.039Z,23.50
2018-04-30T11:35:01.557Z,23.00
2018-04-30T11:37:29.039Z,22.50
2018-04-30T11:39:57.381Z,21.30
2018-04-30T11:42:24.928Z,21.30
2018-04-30T11:44:53.230Z,21.80
2018-04-30T11:47:20.712Z,21.80
2018-04-30T11:49:48.294Z,22.10
2018-04-30T11:52:15.778Z,23.00
2018-04-30T11:54:43.272Z,23.70
2018-04-30T11:57:11.523Z,23.80
2018-04-30T11:59:39.075Z,23.80
2018-04-30T12:02:07.348Z,23.20
2018-04-30T12:04:34.868Z,23.20
2018-04-30T12:07:03.143Z,23.30
2018-04-30T12:09:30.629Z,23.20
2018-04-30T12:11:58.144Z,23.10
2018-04-30T12:14:26.513Z,22.80
2018-04-30T12:16:54.014Z,22.80
2018-04-30T12:19:22.267Z,23.60
2018-04-30T12:21:49.775Z,23.60
2018-04-30T12:24:17.258Z,23.80
2018-04-30T12:26:44.851Z,22.80
2018-04-30T12:29:12.437Z,23.00
2018-04-30T12:31:40.012Z,22.90
2018-04-30T12:34:08.262Z,22.00
2018-04-30T12:36:35.798Z,22.10
2018-04-30T12:39:03.282Z,22.10
2018-04-30T12:41:30.777Z,23.10
2018-04-30T12:43:58.369Z,23.90
2018-04-30T12:46:25.844Z,23.70
2018-04-30T12:48:53.333Z,23.70
2018-04-30T12:51:20.819Z,23.40
2018-04-30T12:53:48.405Z,23.40
2018-04-30T12:56:15.990Z,22.80
2018-04-30T12:58:43.482Z,23.00
2018-04-30T13:01:10.959Z,23.50
2018-04-30T13:03:38.539Z,23.90
2018-04-30T13:06:06.034Z,24.00
2018-04-30T13:08:33.528Z,23.70
2018-04-30T13:11:01.013Z,23.70
2018-04-30T13:13:28.508Z,23.20
2018-04-30T13:15:56.088Z,23.20
2018-04-30T13:18:23.568Z,22.70
2018-04-30T13:20:51.067Z,22.50
2018-04-30T13:23:18.551Z,23.20
2018-04-30T13:25:46.046Z,22.90
2018-04-30T13:28:13.519Z,22.30
2018-04-30T13:30:41.042Z,21.70
2018-04-30T13:33:08.516Z,22.30
2018-04-30T13:35:35.992Z,23.20
2018-04-30T13:38:03.465Z,23.40
2018-04-30T13:40:31.750Z,24.10
2018-04-30T13:43:00.728Z,24.20
2018-04-30T13:45:28.259Z,24.20
2018-04-30T13:47:55.727Z,24.20
2018-04-30T13:50:23.231Z,24.10
2018-04-30T13:52:50.700Z,24.20
2018-04-30T13:55:18.215Z,24.20
2018-04-30T13:57:45.687Z,24.30
2018-04-30T14:00:13.180Z,24.20
2018-04-30T14:02:40.659Z,24.10
2018-04-30T14:05:08.178Z,23.70
2018-04-30T14:07:35.642Z,23.70
2018-04-30T14:10:03.894Z,23.70
2018-04-30T14:12:31.362Z,23.60
2018-04-30T14:14:59.667Z,23.20
2018-04-30T14:17:27.946Z,22.90
2018-04-30T14:19:55.417Z,22.90
2018-04-30T14:22:22.968Z,22.50
2018-04-30T14:24:50.459Z,22.00
2018-04-30T14:27:18.092Z,22.20
2018-04-30T14:29:46.497Z,21.80
2018-04-30T14:32:15.252Z,22.10
2018-04-30T14:34:42.789Z,22.10
2018-04-30T14:37:10.256Z,22.40
2018-04-30T14:39:37.795Z,22.50
2018-04-30T14:42:06.071Z,21.70
2018-04-30T14:44:34.379Z,21.50
2018-04-30T14:47:01.813Z,21.50
2018-04-30T14:49:30.042Z,20.90
2018-04-30T14:51:57.605Z,20.90
2018-04-30T14:54:25.272Z,21.10
2018-04-30T14:56:52.748Z,21.30
2018-04-30T14:59:20.874Z,21.40
2018-04-30T15:01:48.480Z,21.40
2018-04-30T15:04:16.834Z,21.40
2018-04-30T15:06:54.524Z,21.30
2018-04-30T15:09:21.999Z,21.30
2018-04-30T15:11:51.293Z,21.20
2018-04-30T15:14:19.772Z,21.30
2018-04-30T15:16:47.256Z,21.20
2018-04-30T15:19:14.887Z,21.20
2018-04-30T15:21:42.366Z,20.90
2018-04-30T15:24:09.840Z,20.80
2018-04-30T15:26:37.715Z,20.90
2018-04-30T15:29:05.188Z,20.80
2018-04-30T15:31:32.790Z,20.80
2018-04-30T15:34:00.263Z,20.80
2018-04-30T15:36:27.990Z,20.60
2018-04-30T15:38:58.035Z,20.40
2018-04-30T15:41:25.772Z,19.90
2018-04-30T15:43:53.908Z,19.70
2018-04-30T15:46:21.488Z,19.30
2018-04-30T15:48:49.028Z,19.20
2018-04-30T15:51:18.039Z,19.00
2018-04-30T15:53:46.676Z,19.00
2018-04-30T15:56:14.201Z,19.00
2018-04-30T15:58:41.692Z,19.00
2018-04-30T16:01:09.771Z,19.10
2018-04-30T16:03:37.292Z,19.00
2018-04-30T16:06:04.867Z,18.90
2018-04-30T16:08:32.381Z,18.90
2018-04-30T16:11:00.639Z,19.70
2018-04-30T16:13:28.128Z,19.70
2018-04-30T16:15:55.639Z,19.90
2018-04-30T16:18:23.119Z,19.80
2018-04-30T16:20:50.587Z,19.60
2018-04-30T16:23:18.162Z,19.40
2018-04-30T16:25:45.656Z,19.00
2018-04-30T16:28:13.926Z,18.50
2018-04-30T16:30:41.418Z,18.50
2018-04-30T16:33:08.917Z,18.40
2018-04-30T16:35:36.391Z,18.20
2018-04-30T16:38:03.898Z,18.20
2018-04-30T16:40:31.439Z,18.30
2018-04-30T16:43:00.442Z,18.40
2018-04-30T16:45:27.914Z,18.40
2018-04-30T16:47:55.406Z,18.50
2018-04-30T16:50:22.882Z,18.40
2018-04-30T16:52:50.411Z,18.40
2018-04-30T16:55:17.888Z,18.30
2018-04-30T16:57:45.358Z,18.30
2018-04-30T17:00:12.839Z,18.10
2018-04-30T17:02:41.347Z,17.90
2018-04-30T17:05:09.605Z,17.80
2018-04-30T17:07:37.225Z,17.80
2018-04-30T17:10:04.754Z,17.70
2018-04-30T17:12:32.322Z,17.60
2018-04-30T17:14:59.793Z,17.40
2018-04-30T17:17:27.263Z,17.30
2018-04-30T17:19:55.118Z,17.10
2018-04-30T17:22:22.623Z,17.00
2018-04-30T17:24:50.097Z,16.90
2018-04-30T17:27:17.567Z,16.80
2018-04-30T17:29:45.932Z,16.60
2018-04-30T17:32:13.420Z,16.60
2018-04-30T17:34:40.894Z,16.50
2018-04-30T17:37:08.481Z,16.50
2018-04-30T17:39:36.185Z,16.40
2018-04-30T17:42:03.887Z,16.40
2018-04-30T17:44:31.491Z,16.40
2018-04-30T17:46:59.134Z,16.40
2018-04-30T17:49:27.829Z,16.40
2018-04-30T17:51:55.407Z,16.40
2018-04-30T17:54:23.142Z,16.40
2018-04-30T17:56:51.440Z,16.20
2018-04-30T17:59:18.915Z,16.20
2018-04-30T18:01:46.390Z,16.30
2018-04-30T18:04:14.667Z,16.30
2018-04-30T18:06:42.349Z,16.20
2018-04-30T18:09:09.791Z,16.20
2018-04-30T18:11:41.899Z,16.20
2018-04-30T18:14:10.189Z,16.30
2018-04-30T18:16:38.724Z,16.20
2018-04-30T18:19:06.280Z,16.20
2018-04-30T18:21:33.759Z,16.30
2018-04-30T18:24:01.231Z,16.40
2018-04-30T18:26:28.728Z,16.30
2018-04-30T18:28:56.326Z,16.30
2018-04-30T18:31:23.911Z,16.10
2018-04-30T18:33:51.515Z,15.90
2018-04-30T18:36:19.331Z,15.70
2018-04-30T18:38:47.707Z,15.40
2018-04-30T18:41:15.177Z,15.40
2018-04-30T18:43:43.148Z,15.30
2018-04-30T18:46:11.419Z,15.20
2018-04-30T18:48:38.916Z,15.20
2018-04-30T18:51:06.384Z,15.20
2018-04-30T18:53:33.855Z,15.20
2018-04-30T18:56:01.348Z,15.10
2018-04-30T18:58:29.329Z,15.20
2018-04-30T19:00:56.802Z,15.20
2018-04-30T19:03:24.331Z,15.10
2018-04-30T19:05:52.571Z,15.10
2018-04-30T19:08:20.802Z,15.10
2018-04-30T19:10:49.198Z,15.10
2018-04-30T19:13:16.692Z,15.10
2018-04-30T19:15:44.190Z,15.10
2018-04-30T19:18:11.694Z,15.10
2018-04-30T19:20:39.997Z,15.10
2018-04-30T19:23:08.082Z,15.00
2018-04-30T19:25:36.284Z,15.00
2018-04-30T19:28:04.546Z,15.00
2018-04-30T19:30:32.588Z,15.00
2018-04-30T19:33:00.071Z,14.90
2018-04-30T19:35:28.062Z,14.90
2018-04-30T19:37:57.006Z,14.90
2018-04-30T19:40:25.427Z,14.90
2018-04-30T19:42:53.026Z,14.90
2018-04-30T19:45:21.348Z,14.80
2018-04-30T19:47:48.759Z,14.80
2018-04-30T19:50:16.238Z,14.80
2018-04-30T19:52:43.710Z,14.80
2018-04-30T19:55:12.608Z,14.70
2018-04-30T19:57:41.610Z,14.60
2018-04-30T20:00:09.194Z,14.60
2018-04-30T20:02:36.701Z,14.60
2018-04-30T20:05:04.946Z,14.50
2018-04-30T20:07:32.516Z,14.50
2018-04-30T20:10:00.395Z,14.40
2018-04-30T20:12:27.865Z,14.40
2018-04-30T20:14:55.666Z,14.30
2018-04-30T20:17:23.298Z,14.30
2018-04-30T20:19:51.571Z,14.30
2018-04-30T20:22:19.066Z,14.20
2018-04-30T20:24:46.551Z,14.30
2018-04-30T20:27:14.410Z,14.30
2018-04-30T20:29:41.888Z,14.30
2018-04-30T20:32:10.323Z,14.40
2018-04-30T20:34:38.566Z,14.30
2018-04-30T20:37:06.066Z,14.30
2018-04-30T20:39:34.007Z,14.20
2018-04-30T20:42:01.551Z,14.20
2018-04-30T20:44:29.471Z,14.10
2018-04-30T20:46:57.089Z,14.10
2018-04-30T20:49:24.683Z,14.00
2018-04-30T20:51:53.558Z,14.00
2018-04-30T20:54:21.863Z,14.00
2018-04-30T20:56:49.335Z,14.00
2018-04-30T20:59:18.116Z,14.00
2018-04-30T21:01:45.591Z,14.00
2018-04-30T21:04:13.071Z,13.90
2018-04-30T21:06:40.544Z,13.90
2018-04-30T21:09:13.723Z,13.90
2018-04-30T21:11:41.194Z,13.80
2018-04-30T21:14:08.675Z,13.70
2018-04-30T21:16:36.163Z,13.70
2018-04-30T21:19:03.687Z,13.60
2018-04-30T21:21:31.167Z,13.60
2018-04-30T21:23:58.642Z,13.60
2018-04-30T21:26:27.117Z,13.60
2018-04-30T21:28:54.594Z,13.50
2018-04-30T21:31:22.079Z,13.40
2018-04-30T21:33:49.563Z,13.40
2018-04-30T21:36:17.051Z,13.30
2018-04-30T21:38:44.523Z,13.20
2018-04-30T21:41:12.095Z,13.10
2018-04-30T21:43:39.620Z,13.00
2018-04-30T21:46:07.102Z,12.90
2018-04-30T21:48:34.580Z,12.80
2018-04-30T21:51:02.063Z,12.70
2018-04-30T21:53:29.530Z,12.70
2018-04-30T21:55:57.007Z,12.60
2018-04-30T21:58:24.536Z,12.60
2018-04-30T22:00:52.823Z,12.70
2018-04-30T22:03:20.302Z,12.70
2018-04-30T22:05:47.774Z,12.70
2018-04-30T22:08:15.291Z,12.70
2018-04-30T22:10:42.763Z,12.80
2018-04-30T22:13:10.243Z,12.80
2018-04-30T22:15:37.719Z,12.90
2018-04-30T22:18:05.220Z,12.90
2018-04-30T22:20:32.903Z,12.90
2018-04-30T22:23:00.381Z,12.80
2018-04-30T22:25:27.850Z,12.80
2018-04-30T22:27:55.831Z,12.80
2018-04-30T22:30:23.367Z,12.80
2018-04-30T22:32:50.851Z,12.80
2018-04-30T22:35:18.331Z,12.80
2018-04-30T22:37:45.811Z,12.80
2018-04-30T22:40:13.322Z,12.70
2018-04-30T22:42:40.827Z,12.70
2018-04-30T22:45:08.311Z,12.70
2018-04-30T22:47:35.887Z,12.70
2018-04-30T22:50:03.388Z,12.70
2018-04-30T22:52:30.971Z,12.60
2018-04-30T22:54:58.611Z,12.60
2018-04-30T22:57:26.046Z,12.50
2018-04-30T22:59:53.623Z,12.50
2018-04-30T23:02:21.100Z,12.50
2018-04-30T23:04:48.697Z,12.40
2018-04-30T23:07:16.171Z,12.40
2018-04-30T23:09:43.656Z,12.50
2018-04-30T23:12:11.141Z,12.40
2018-04-30T23:14:38.610Z,12.40
2018-04-30T23:17:06.091Z,12.40
2018-04-30T23:19:33.567Z,12.40
2018-04-30T23:22:01.039Z,12.40
2018-04-30T23:24:28.580Z,12.40
2018-04-30T23:26:56.159Z,12.40
2018-04-30T23:29:23.631Z,12.40
2018-04-30T23:31:51.116Z,12.40
2018-04-30T23:34:18.586Z,12.40
2018-04-30T23:36:46.067Z,12.40
2018-04-30T23:39:13.538Z,12.30
2018-04-30T23:41:41.067Z,12.30
2018-04-30T23:44:08.540Z,12.30
2018-04-30T23:46:36.032Z,12.30
2018-04-30T23:49:03.618Z,12.30
2018-04-30T23:51:31.104Z,12.30
2018-04-30T23:53:58.571Z,12.30
2018-04-30T23:56:26.099Z,12.30
2018-04-30T23:58:53.574Z,12.30
